createdAt,value
2018-07-20T00:00:48.115Z,19.09
2018-07-20T00:03:18.993Z,19.05
2018-07-20T00:05:49.834Z,19.14
2018-07-20T00:08:20.845Z,19.14
2018-07-20T00:10:51.568Z,19.11
2018-07-20T00:13:22.572Z,19.14
2018-07-20T00:15:53.600Z,19.13
2018-07-20T00:18:24.523Z,19.14
2018-07-20T00:20:55.568Z,19.08
2018-07-20T00:23:26.523Z,18.99
2018-07-20T00:25:57.844Z,18.88
2018-07-20T00:28:28.881Z,18.78
2018-07-20T00:31:00.064Z,18.75
2018-07-20T00:33:30.939Z,18.69
2018-07-20T00:36:01.935Z,18.63
2018-07-20T00:38:32.981Z,18.46
2018-07-20T00:41:03.977Z,18.33
2018-07-20T00:43:34.949Z,18.28
2018-07-20T00:46:05.989Z,18.24
2018-07-20T00:48:36.943Z,18.25
2018-07-20T00:51:07.956Z,18.26
2018-07-20T00:53:39.058Z,18.25
2018-07-20T00:56:10.041Z,18.26
2018-07-20T00:58:40.837Z,18.22
2018-07-20T01:01:11.552Z,18.18
2018-07-20T01:03:42.085Z,18.12
2018-07-20T01:06:12.500Z,18.13
2018-07-20T01:08:43.039Z,18.12
2018-07-20T01:11:15.505Z,18.15
2018-07-20T01:13:46.289Z,18.11
2018-07-20T01:16:16.718Z,18.06
2018-07-20T01:18:47.148Z,17.99
2018-07-20T01:21:17.567Z,17.96
2018-07-20T01:23:47.871Z,17.94
2018-07-20T01:26:18.668Z,17.91
2018-07-20T01:28:49.141Z,17.85
2018-07-20T01:31:19.680Z,17.83
2018-07-20T01:33:50.477Z,17.80
2018-07-20T01:36:21.090Z,17.72
2018-07-20T01:38:51.560Z,17.72
2018-07-20T01:41:21.917Z,17.71
2018-07-20T01:43:52.300Z,17.67
2018-07-20T01:46:22.682Z,17.61
2018-07-20T01:48:53.054Z,17.60
2018-07-20T01:51:24.748Z,17.57
2018-07-20T01:53:55.149Z,17.52
2018-07-20T01:56:25.822Z,17.44
2018-07-20T01:58:56.432Z,17.39
2018-07-20T02:01:26.912Z,17.37
2018-07-20T02:03:57.362Z,17.38
2018-07-20T02:06:27.754Z,17.34
2018-07-20T02:08:58.175Z,17.32
2018-07-20T02:11:28.543Z,17.32
2018-07-20T02:13:58.971Z,17.26
2018-07-20T02:16:29.507Z,17.16
2018-07-20T02:19:00.040Z,17.07
2018-07-20T02:21:30.602Z,17.02
2018-07-20T02:24:01.103Z,16.92
2018-07-20T02:26:31.630Z,16.96
2018-07-20T02:29:01.940Z,16.97
2018-07-20T02:31:32.499Z,16.94
2018-07-20T02:34:02.919Z,16.92
2018-07-20T02:36:45.024Z,16.95
2018-07-20T02:39:15.368Z,16.87
2018-07-20T02:41:45.935Z,16.84
2018-07-20T02:44:16.447Z,16.77
2018-07-20T02:46:47.299Z,16.69
2018-07-20T02:49:17.756Z,16.64
2018-07-20T02:51:52.878Z,16.55
2018-07-20T02:54:23.373Z,16.49
2018-07-20T02:56:54.068Z,16.47
2018-07-20T02:59:24.587Z,16.47
2018-07-20T03:01:55.118Z,16.44
2018-07-20T03:04:25.516Z,16.44
2018-07-20T03:06:56.144Z,16.48
2018-07-20T03:09:26.726Z,16.47
2018-07-20T03:11:57.236Z,16.45
2018-07-20T03:14:27.470Z,16.50
2018-07-20T03:16:57.899Z,16.45
2018-07-20T03:19:28.314Z,16.43
2018-07-20T03:21:58.812Z,16.42
2018-07-20T03:24:29.248Z,16.46
2018-07-20T03:26:59.940Z,16.44
2018-07-20T03:29:30.278Z,16.47
2018-07-20T03:32:00.739Z,16.40
2018-07-20T03:34:31.148Z,16.38
2018-07-20T03:37:01.496Z,16.33
2018-07-20T03:39:31.760Z,16.30
2018-07-20T03:42:02.286Z,16.27
2018-07-20T03:44:32.688Z,16.25
2018-07-20T03:47:03.171Z,16.25
2018-07-20T03:49:33.692Z,16.25
2018-07-20T03:52:04.258Z,16.26
2018-07-20T03:54:34.647Z,16.26
2018-07-20T03:57:05.195Z,16.27
2018-07-20T03:59:35.609Z,16.32
2018-07-20T04:02:06.003Z,16.36
2018-07-20T04:04:36.639Z,16.33
2018-07-20T04:07:07.157Z,16.34
2018-07-20T04:09:37.731Z,16.40
2018-07-20T04:12:08.531Z,16.51
2018-07-20T04:14:38.925Z,16.61
2018-07-20T04:17:09.428Z,16.68
2018-07-20T04:19:39.914Z,16.69
2018-07-20T04:22:10.543Z,16.75
2018-07-20T04:24:41.208Z,16.84
2018-07-20T04:27:11.738Z,16.94
2018-07-20T04:29:42.369Z,17.05
2018-07-20T04:32:12.861Z,17.17
2018-07-20T04:34:48.955Z,17.29
2018-07-20T04:37:19.447Z,17.43
2018-07-20T04:39:49.954Z,17.57
2018-07-20T04:42:20.330Z,17.69
2018-07-20T04:44:50.725Z,17.79
2018-07-20T04:47:20.894Z,17.94
2018-07-20T04:49:51.440Z,18.13
2018-07-20T04:52:27.715Z,18.42
2018-07-20T04:54:58.285Z,18.43
2018-07-20T04:57:28.727Z,18.32
2018-07-20T05:00:05.438Z,18.41
2018-07-20T05:02:35.950Z,18.74
2018-07-20T05:05:05.919Z,19.01
2018-07-20T05:07:36.315Z,19.26
2018-07-20T05:10:07.273Z,19.18
2018-07-20T05:12:37.649Z,19.28
2018-07-20T05:15:08.229Z,19.57
2018-07-20T05:17:38.683Z,19.78
2018-07-20T05:20:09.142Z,19.99
2018-07-20T05:22:39.753Z,20.02
2018-07-20T05:25:10.255Z,20.18
2018-07-20T05:27:41.203Z,20.60
2018-07-20T05:30:11.863Z,21.57
2018-07-20T05:32:42.653Z,22.69
2018-07-20T05:35:12.935Z,24.27
2018-07-20T05:37:43.708Z,25.71
2018-07-20T05:40:14.074Z,27.04
2018-07-20T05:42:44.519Z,27.70
2018-07-20T05:45:21.130Z,27.80
2018-07-20T05:47:51.495Z,29.12
2018-07-20T05:50:21.879Z,29.92
2018-07-20T05:52:51.798Z,30.53
2018-07-20T05:55:22.284Z,30.98
2018-07-20T05:57:53.319Z,31.31
2018-07-20T06:00:23.866Z,32.08
2018-07-20T06:02:54.269Z,32.64
2018-07-20T06:08:37.073Z,31.83
2018-07-20T06:11:07.906Z,31.72
2018-07-20T06:13:39.021Z,31.29
2018-07-20T06:16:10.807Z,31.02
2018-07-20T06:18:47.374Z,30.13
2018-07-20T06:21:18.134Z,30.12
2018-07-20T06:23:48.607Z,30.71
2018-07-20T06:26:20.423Z,29.24
2018-07-20T06:28:51.688Z,30.15
2018-07-20T06:31:22.760Z,30.86
2018-07-20T06:33:53.638Z,30.95
2018-07-20T06:36:25.327Z,30.78
2018-07-20T06:38:56.046Z,29.58
2018-07-20T06:44:34.284Z,30.30
2018-07-20T06:47:19.295Z,29.64
2018-07-20T06:49:50.024Z,30.59
2018-07-20T06:52:32.800Z,29.84
2018-07-20T06:55:03.440Z,31.01
2018-07-20T06:57:46.494Z,30.83
2018-07-20T07:00:17.446Z,30.38
2018-07-20T07:02:48.416Z,30.88
2018-07-20T07:05:19.055Z,30.60
2018-07-20T07:07:49.901Z,31.39
2018-07-20T07:10:20.896Z,32.47
2018-07-20T07:12:51.918Z,33.42
2018-07-20T07:15:22.893Z,32.97
2018-07-20T07:17:53.631Z,33.25
2018-07-20T07:20:24.400Z,33.33
2018-07-20T07:22:55.108Z,32.73
2018-07-20T07:25:25.974Z,33.80
2018-07-20T07:27:59.988Z,32.92
2018-07-20T07:30:30.663Z,32.95
2018-07-20T07:33:02.051Z,33.50
2018-07-20T07:35:32.685Z,34.46
2018-07-20T07:38:04.030Z,34.49
2018-07-20T07:40:34.651Z,34.24
2018-07-20T07:43:05.353Z,34.59
2018-07-20T07:45:36.248Z,33.66
2018-07-20T07:48:07.375Z,32.23
2018-07-20T07:50:38.337Z,33.37
2018-07-20T07:53:09.568Z,31.05
2018-07-20T07:55:40.387Z,32.72
2018-07-20T07:58:11.275Z,32.72
2018-07-20T08:00:42.125Z,32.37
2018-07-20T08:03:13.187Z,32.06
2018-07-20T08:05:43.802Z,32.09
2018-07-20T08:08:14.645Z,33.24
2018-07-20T08:10:45.355Z,33.56
2018-07-20T08:13:16.194Z,34.67
2018-07-20T08:15:46.763Z,35.19
2018-07-20T08:18:17.506Z,35.97
2018-07-20T08:20:48.405Z,36.68
2018-07-20T08:23:19.252Z,33.08
2018-07-20T08:25:50.283Z,31.53
2018-07-20T08:28:21.304Z,32.89
2018-07-20T08:30:51.975Z,33.41
2018-07-20T08:33:22.959Z,32.78
2018-07-20T08:35:54.831Z,32.96
2018-07-20T08:38:25.808Z,34.09
2018-07-20T08:40:56.912Z,33.71
2018-07-20T08:43:27.939Z,35.24
2018-07-20T08:45:58.978Z,33.33
2018-07-20T08:48:36.344Z,33.51
2018-07-20T08:51:07.348Z,33.59
2018-07-20T08:53:37.448Z,32.36
2018-07-20T08:56:07.931Z,34.57
2018-07-20T08:58:38.599Z,36.31
2018-07-20T09:01:09.175Z,35.47
2018-07-20T09:03:39.591Z,34.46
2018-07-20T09:06:09.861Z,35.94
2018-07-20T09:08:40.356Z,37.11
2018-07-20T09:11:10.931Z,36.81
2018-07-20T09:13:41.325Z,36.97
2018-07-20T09:16:11.570Z,34.06
2018-07-20T09:18:41.663Z,36.70
2018-07-20T09:21:11.884Z,33.89
2018-07-20T09:23:42.047Z,35.27
2018-07-20T09:26:12.143Z,33.99
2018-07-20T09:28:44.297Z,34.84
2018-07-20T09:31:14.776Z,34.31
2018-07-20T09:33:45.066Z,34.31
2018-07-20T09:36:15.206Z,34.95
2018-07-20T09:38:46.358Z,36.60
2018-07-20T09:41:16.582Z,37.63
2018-07-20T09:43:46.621Z,35.84
2018-07-20T09:46:17.177Z,35.05
2018-07-20T09:48:47.292Z,35.63
2018-07-20T09:51:17.425Z,35.65
2018-07-20T09:53:47.811Z,38.14
2018-07-20T09:56:18.008Z,37.41
2018-07-20T09:58:48.285Z,37.86
2018-07-20T10:01:18.584Z,37.14
2018-07-20T10:03:48.785Z,37.39
2018-07-20T10:06:18.939Z,38.53
2018-07-20T10:08:48.963Z,38.68
2018-07-20T10:11:23.638Z,36.46
2018-07-20T10:13:53.579Z,35.09
2018-07-20T10:16:23.663Z,35.62
2018-07-20T10:18:53.830Z,37.39
2018-07-20T10:21:24.110Z,38.72
2018-07-20T10:23:54.294Z,40.23
2018-07-20T10:26:24.358Z,39.26
2018-07-20T10:32:05.315Z,38.45
2018-07-20T10:34:35.487Z,40.52
2018-07-20T10:37:05.738Z,38.85
2018-07-20T10:39:36.091Z,39.08
2018-07-20T10:42:17.894Z,38.91
2018-07-20T10:47:54.263Z,37.20
2018-07-20T10:50:24.074Z,37.62
2018-07-20T10:52:53.905Z,40.46
2018-07-20T10:55:31.231Z,38.89
2018-07-20T10:58:00.979Z,39.35
2018-07-20T11:00:36.488Z,37.41
2018-07-20T11:03:14.403Z,39.36
2018-07-20T11:05:44.450Z,39.22
2018-07-20T11:08:27.347Z,41.28
2018-07-20T11:11:00.642Z,40.77
2018-07-20T11:13:33.914Z,41.41
2018-07-20T11:16:31.105Z,40.24
2018-07-20T11:19:01.268Z,36.78
2018-07-20T11:21:31.111Z,37.83
2018-07-20T11:24:01.224Z,37.33
2018-07-20T11:26:32.796Z,37.11
2018-07-20T11:29:02.666Z,39.09
2018-07-20T11:31:32.746Z,37.50
2018-07-20T11:34:02.529Z,39.46
2018-07-20T11:36:32.318Z,39.93
2018-07-20T11:39:02.130Z,40.40
2018-07-20T11:41:32.390Z,39.13
2018-07-20T11:44:02.619Z,41.09
2018-07-20T11:46:32.413Z,38.69
2018-07-20T11:49:02.579Z,40.26
2018-07-20T11:51:32.715Z,40.86
2018-07-20T11:54:02.485Z,39.46
2018-07-20T11:56:32.967Z,38.26
2018-07-20T11:59:03.109Z,39.01
2018-07-20T12:01:33.525Z,40.48
2018-07-20T12:04:03.677Z,39.97
2018-07-20T12:06:33.520Z,39.28
2018-07-20T12:09:04.472Z,39.36
2018-07-20T12:11:34.899Z,39.24
2018-07-20T12:14:04.749Z,39.76
2018-07-20T12:16:35.051Z,39.00
2018-07-20T12:19:05.083Z,37.96
2018-07-20T12:21:35.195Z,37.34
2018-07-20T12:24:05.318Z,39.03
2018-07-20T12:26:35.375Z,39.47
2018-07-20T12:29:05.796Z,40.04
2018-07-20T12:31:47.569Z,42.04
2018-07-20T12:34:17.905Z,43.94
2018-07-20T12:36:48.129Z,42.01
2018-07-20T12:42:39.273Z,39.62
2018-07-20T12:45:09.450Z,38.67
2018-07-20T12:47:39.980Z,37.13
2018-07-20T12:50:10.329Z,37.92
2018-07-20T12:52:40.413Z,39.34
2018-07-20T12:55:10.562Z,42.18
2018-07-20T12:57:40.778Z,41.16
2018-07-20T13:00:11.260Z,41.01
2018-07-20T13:08:45.206Z,40.11
2018-07-20T13:11:31.639Z,38.64
2018-07-20T13:14:01.962Z,37.76
2018-07-20T13:16:31.959Z,37.50
2018-07-20T13:19:02.338Z,36.51
2018-07-20T13:21:34.746Z,36.35
2018-07-20T13:24:05.446Z,34.42
2018-07-20T13:26:35.049Z,34.65
2018-07-20T13:29:05.382Z,35.12
2018-07-20T13:34:39.423Z,33.88
2018-07-20T13:37:09.486Z,33.98
2018-07-20T13:39:39.570Z,33.81
2018-07-20T13:42:09.635Z,33.18
2018-07-20T13:44:39.841Z,33.42
2018-07-20T13:47:10.397Z,33.35
2018-07-20T13:49:40.936Z,33.51
2018-07-20T13:52:11.448Z,33.57
2018-07-20T13:54:41.947Z,33.33
2018-07-20T13:57:12.797Z,33.55
2018-07-20T13:59:43.129Z,33.52
2018-07-20T14:02:13.878Z,33.01
2018-07-20T14:04:44.906Z,33.54
2018-07-20T14:07:15.074Z,32.71
2018-07-20T14:09:45.109Z,32.82
2018-07-20T14:12:15.558Z,33.19
2018-07-20T14:14:46.053Z,32.77
2018-07-20T14:17:16.605Z,32.45
2018-07-20T14:19:47.117Z,32.68
2018-07-20T14:22:17.598Z,32.18
2018-07-20T14:24:48.301Z,32.62
2018-07-20T14:27:19.241Z,33.73
2018-07-20T14:29:50.171Z,34.64
2018-07-20T14:32:20.990Z,33.08
2018-07-20T14:34:52.158Z,32.79
2018-07-20T14:37:22.139Z,33.38
2018-07-20T14:39:53.033Z,33.46
2018-07-20T14:42:24.088Z,33.26
2018-07-20T14:44:55.106Z,32.88
2018-07-20T14:47:26.058Z,32.35
2018-07-20T14:49:57.056Z,32.72
2018-07-20T14:52:28.158Z,32.11
2018-07-20T14:54:58.940Z,30.88
2018-07-20T14:57:30.177Z,30.75
2018-07-20T15:00:01.121Z,30.42
2018-07-20T15:02:31.822Z,30.52
2018-07-20T15:05:02.835Z,30.78
2018-07-20T15:07:37.698Z,32.31
2018-07-20T15:10:08.552Z,33.06
2018-07-20T15:12:39.449Z,32.95
2018-07-20T15:15:10.888Z,32.52
2018-07-20T15:17:41.756Z,32.19
2018-07-20T15:20:12.950Z,31.59
2018-07-20T15:22:43.976Z,32.20
2018-07-20T15:25:14.964Z,32.73
2018-07-20T15:27:45.550Z,32.92
2018-07-20T15:30:16.547Z,33.65
2018-07-20T15:32:46.868Z,34.70
2018-07-20T15:35:18.018Z,34.40
2018-07-20T15:37:49.013Z,33.17
2018-07-20T15:40:19.691Z,34.74
2018-07-20T15:42:50.432Z,35.04
2018-07-20T15:45:21.435Z,35.22
2018-07-20T15:47:52.453Z,33.54
2018-07-20T15:50:23.082Z,33.20
2018-07-20T15:53:36.282Z,32.44
2018-07-20T15:55:29.132Z,31.32
2018-07-20T15:58:00.112Z,32.10
2018-07-20T16:00:30.630Z,32.40
2018-07-20T16:03:01.127Z,31.58
2018-07-20T16:05:31.738Z,31.90
2018-07-20T16:08:03.004Z,31.02
2018-07-20T16:10:34.157Z,31.06
2018-07-20T16:13:04.502Z,30.81
2018-07-20T16:15:35.203Z,30.62
2018-07-20T16:18:06.528Z,30.66
2018-07-20T16:20:37.600Z,30.36
2018-07-20T16:23:08.554Z,30.48
2018-07-20T16:25:39.289Z,30.64
2018-07-20T16:28:20.654Z,31.15
2018-07-20T16:30:51.610Z,32.11
2018-07-20T16:33:22.116Z,32.39
2018-07-20T16:35:52.792Z,32.18
2018-07-20T16:38:23.167Z,31.55
2018-07-20T16:40:53.613Z,31.41
2018-07-20T16:43:23.714Z,31.26
2018-07-20T16:45:54.263Z,31.26
2018-07-20T16:48:24.780Z,31.17
2018-07-20T16:50:55.178Z,31.56
2018-07-20T16:53:25.597Z,31.11
2018-07-20T16:55:55.828Z,30.73
2018-07-20T16:58:26.239Z,29.88
2018-07-20T17:00:56.558Z,29.45
2018-07-20T17:03:27.001Z,29.18
2018-07-20T17:05:57.475Z,29.06
2018-07-20T17:08:27.752Z,29.06
2018-07-20T17:10:58.262Z,28.90
2018-07-20T17:13:28.805Z,28.64
2018-07-20T17:15:59.462Z,28.63
2018-07-20T17:18:29.874Z,28.20
2018-07-20T17:21:00.479Z,28.08
2018-07-20T17:23:31.109Z,28.21
2018-07-20T17:26:01.672Z,28.04
2018-07-20T17:28:32.157Z,27.80
2018-07-20T17:31:03.026Z,28.01
2018-07-20T17:33:33.433Z,27.85
2018-07-20T17:36:03.967Z,27.67
2018-07-20T17:38:34.291Z,27.70
2018-07-20T17:41:04.754Z,27.56
2018-07-20T17:43:35.164Z,27.61
2018-07-20T17:46:05.662Z,27.47
2018-07-20T17:48:36.020Z,27.23
2018-07-20T17:51:06.437Z,27.19
2018-07-20T17:53:36.944Z,27.16
2018-07-20T17:56:07.703Z,27.34
2018-07-20T17:58:37.947Z,27.27
2018-07-20T18:01:08.267Z,27.23
2018-07-20T18:03:38.713Z,27.12
2018-07-20T18:06:09.210Z,27.02
2018-07-20T18:08:39.684Z,26.96
2018-07-20T18:11:10.181Z,26.84
2018-07-20T18:13:40.183Z,26.70
2018-07-20T18:16:10.856Z,26.58
2018-07-20T18:18:41.681Z,26.46
2018-07-20T18:24:18.600Z,26.29
2018-07-20T18:26:48.992Z,26.26
2018-07-20T18:29:19.497Z,26.19
2018-07-20T18:31:49.971Z,26.10
2018-07-20T18:34:20.263Z,25.96
2018-07-20T18:36:50.829Z,25.89
2018-07-20T18:39:21.121Z,25.74
2018-07-20T18:41:51.571Z,25.56
2018-07-20T18:44:22.543Z,25.45
2018-07-20T18:46:53.188Z,25.35
2018-07-20T18:49:23.678Z,25.17
2018-07-20T18:51:54.145Z,25.12
2018-07-20T18:54:24.908Z,25.03
2018-07-20T18:56:55.316Z,24.91
2018-07-20T18:59:25.716Z,24.89
2018-07-20T19:01:56.223Z,24.86
2018-07-20T19:04:26.756Z,24.77
2018-07-20T19:06:57.109Z,24.74
2018-07-20T19:09:27.508Z,24.68
2018-07-20T19:11:58.348Z,24.58
2018-07-20T19:14:28.827Z,24.55
2018-07-20T19:16:59.503Z,24.62
2018-07-20T19:19:29.492Z,24.72
2018-07-20T19:22:00.192Z,24.88
2018-07-20T19:24:30.888Z,24.94
2018-07-20T19:27:01.492Z,24.89
2018-07-20T19:29:32.086Z,24.85
2018-07-20T19:32:02.707Z,24.72
2018-07-20T19:34:33.280Z,24.61
2018-07-20T19:37:03.989Z,24.50
2018-07-20T19:39:34.532Z,24.38
2018-07-20T19:42:05.082Z,24.29
2018-07-20T19:44:35.699Z,24.23
2018-07-20T19:47:07.551Z,24.11
2018-07-20T19:49:38.598Z,24.07
2018-07-20T19:52:09.244Z,24.04
2018-07-20T19:54:39.740Z,23.90
2018-07-20T19:57:22.719Z,23.85
2018-07-20T19:59:53.375Z,23.82
2018-07-20T20:02:23.869Z,23.82
2018-07-20T20:04:54.733Z,23.93
2018-07-20T20:07:26.763Z,23.99
2018-07-20T20:09:57.459Z,24.15
2018-07-20T20:12:30.072Z,24.08
2018-07-20T20:15:01.272Z,23.99
2018-07-20T20:17:50.817Z,23.93
2018-07-20T20:20:21.826Z,23.90
2018-07-20T20:22:53.005Z,23.92
2018-07-20T20:25:24.314Z,23.85
2018-07-20T20:27:55.067Z,23.59
2018-07-20T20:30:26.035Z,23.33
2018-07-20T20:32:56.793Z,23.12
2018-07-20T20:35:27.889Z,23.02
2018-07-20T20:37:58.896Z,22.93
2018-07-20T20:40:29.931Z,22.78
2018-07-20T20:43:00.848Z,22.76
2018-07-20T20:45:31.927Z,22.78
2018-07-20T20:48:02.283Z,22.76
2018-07-20T20:50:32.753Z,22.73
2018-07-20T20:53:03.177Z,22.78
2018-07-20T20:55:33.771Z,22.74
2018-07-20T20:58:04.188Z,22.68
2018-07-20T21:00:34.759Z,22.68
2018-07-20T21:03:11.911Z,22.69
2018-07-20T21:05:42.567Z,22.75
2018-07-20T21:08:16.036Z,22.89
2018-07-20T21:10:57.053Z,23.09
2018-07-20T21:13:28.051Z,23.07
2018-07-20T21:15:58.264Z,23.13
2018-07-20T21:18:29.100Z,23.24
2018-07-20T21:21:00.152Z,23.34
2018-07-20T21:23:31.783Z,23.30
2018-07-20T21:26:08.206Z,23.30
2018-07-20T21:28:39.721Z,23.31
2018-07-20T21:31:10.608Z,23.18
2018-07-20T21:33:41.452Z,23.12
2018-07-20T21:36:20.283Z,22.93
2018-07-20T21:38:51.021Z,22.96
2018-07-20T21:41:21.790Z,22.88
2018-07-20T21:43:52.231Z,22.83
2018-07-20T21:46:22.672Z,22.76
2018-07-20T21:49:13.265Z,22.75
2018-07-20T21:51:43.692Z,22.62
2018-07-20T21:54:14.007Z,22.45
2018-07-20T21:56:44.511Z,22.52
2018-07-20T21:59:14.972Z,22.47
2018-07-20T22:01:45.418Z,22.46
2018-07-20T22:04:15.911Z,22.40
2018-07-20T22:06:46.439Z,22.23
2018-07-20T22:09:16.932Z,22.29
2018-07-20T22:11:47.310Z,22.32
2018-07-20T22:14:17.960Z,22.32
2018-07-20T22:16:48.482Z,22.31
2018-07-20T22:19:21.150Z,22.15
2018-07-20T22:21:51.736Z,22.23
2018-07-20T22:24:38.238Z,22.18
2018-07-20T22:27:08.833Z,22.09
2018-07-20T22:29:39.465Z,21.98
2018-07-20T22:32:10.012Z,21.91
2018-07-20T22:34:40.524Z,21.79
2018-07-20T22:37:10.781Z,21.79
2018-07-20T22:39:41.366Z,21.79
2018-07-20T22:42:11.797Z,21.73
2018-07-20T22:44:42.771Z,21.80
2018-07-20T22:47:13.261Z,21.76
2018-07-20T22:49:43.968Z,21.85
2018-07-20T22:52:14.466Z,21.82
2018-07-20T22:54:51.080Z,21.72
2018-07-20T22:57:21.655Z,21.71
2018-07-20T22:59:52.280Z,21.66
2018-07-20T23:02:22.787Z,21.67
2018-07-20T23:04:59.395Z,21.60
2018-07-20T23:07:29.760Z,21.56
2018-07-20T23:10:00.252Z,21.62
2018-07-20T23:12:30.659Z,21.61
2018-07-20T23:15:01.060Z,21.80
2018-07-20T23:17:31.643Z,21.78
2018-07-20T23:20:02.045Z,21.70
2018-07-20T23:22:32.493Z,21.68
2018-07-20T23:25:03.008Z,21.74
2018-07-20T23:27:33.551Z,21.71
2018-07-20T23:30:04.071Z,21.74
2018-07-20T23:32:34.563Z,21.79
2018-07-20T23:35:04.951Z,21.76
2018-07-20T23:37:36.415Z,21.69
2018-07-20T23:40:07.508Z,21.74
2018-07-20T23:42:38.170Z,21.70
2018-07-20T23:45:09.693Z,21.62
2018-07-20T23:47:40.120Z,21.55
2018-07-20T23:50:10.082Z,21.47
2018-07-20T23:52:40.579Z,21.42
2018-07-20T23:55:11.104Z,21.38
2018-07-20T23:57:41.743Z,21.37
